createdAt,value
2022-09-20T00:01:28.181Z,95114.38
2022-09-20T00:03:58.348Z,95120.34
2022-09-20T00:06:27.354Z,95113.91
2022-09-20T00:08:54.362Z,95119.91
2022-09-20T00:11:23.277Z,95115.34
2022-09-20T00:13:52.974Z,95111.22
2022-09-20T00:16:25.382Z,95105.00
2022-09-20T00:18:54.131Z,95114.56
2022-09-20T00:21:24.486Z,95114.31
2022-09-20T00:23:52.505Z,95119.34
2022-09-20T00:26:20.028Z,95104.97
2022-09-20T00:28:47.183Z,95109.06
2022-09-20T00:31:14.282Z,95115.50
2022-09-20T00:33:59.399Z,95107.84
2022-09-20T00:36:27.394Z,95103.25
2022-09-20T00:38:58.017Z,95108.06
2022-09-20T00:41:24.633Z,95109.00
2022-09-20T00:43:51.687Z,95103.00
2022-09-20T00:46:40.735Z,95099.41
2022-09-20T00:49:20.629Z,95105.84
2022-09-20T00:51:55.488Z,95093.91
2022-09-20T00:54:25.190Z,95098.19
2022-09-20T00:56:52.425Z,95089.78
2022-09-20T00:59:23.230Z,95093.63
2022-09-20T01:02:00.632Z,95096.97
2022-09-20T01:04:28.555Z,95094.56
2022-09-20T01:07:00.852Z,95094.53
2022-09-20T01:09:27.304Z,95105.28
2022-09-20T01:11:56.442Z,95098.59
2022-09-20T01:14:24.705Z,95102.84
2022-09-20T01:16:55.063Z,95092.53
2022-09-20T01:19:32.996Z,95102.31
2022-09-20T01:22:04.299Z,95102.13
2022-09-20T01:24:48.552Z,95100.91
2022-09-20T01:27:21.031Z,95096.88
2022-09-20T01:29:56.441Z,95094.25
2022-09-20T01:32:30.905Z,95098.22
2022-09-20T01:35:00.333Z,95087.72
2022-09-20T01:37:32.144Z,95088.94
2022-09-20T01:40:21.910Z,95081.97
2022-09-20T01:43:02.817Z,95082.00
2022-09-20T01:45:31.913Z,95094.84
2022-09-20T01:48:13.418Z,95091.97
2022-09-20T01:50:58.589Z,95086.22
2022-09-20T01:54:15.783Z,95091.91
2022-09-20T01:57:13.033Z,95093.56
2022-09-20T02:00:06.039Z,95093.81
2022-09-20T02:02:57.553Z,95091.38
2022-09-20T02:05:46.943Z,95079.84
2022-09-20T02:08:49.548Z,95084.19
2022-09-20T02:11:18.840Z,95081.75
2022-09-20T02:14:04.367Z,95079.34
2022-09-20T02:16:54.143Z,95085.50
2022-09-20T02:20:01.883Z,95077.63
2022-09-20T02:23:02.458Z,95080.44
2022-09-20T02:25:43.970Z,95073.69
2022-09-20T02:28:13.321Z,95082.72
2022-09-20T02:31:02.160Z,95082.94
2022-09-20T02:33:40.792Z,95085.31
2022-09-20T02:36:27.215Z,95093.38
2022-09-20T02:38:59.634Z,95095.47
2022-09-20T02:41:52.832Z,95092.13
2022-09-20T02:44:37.946Z,95094.69
2022-09-20T02:47:07.464Z,95090.34
2022-09-20T02:49:58.845Z,95095.81
2022-09-20T02:52:32.627Z,95094.09
2022-09-20T02:54:58.996Z,95093.09
2022-09-20T02:58:05.724Z,95098.81
2022-09-20T03:01:04.014Z,95094.22
2022-09-20T03:03:52.128Z,95102.28
2022-09-20T03:06:34.070Z,95100.31
2022-09-20T03:09:18.417Z,95100.78
2022-09-20T03:12:11.386Z,95096.25
2022-09-20T03:14:45.517Z,95095.47
2022-09-20T03:17:43.678Z,95101.69
2022-09-20T03:20:47.556Z,95094.94
2022-09-20T03:23:27.807Z,95098.50
2022-09-20T03:26:15.555Z,95091.56
2022-09-20T03:28:57.337Z,95092.72
2022-09-20T03:31:44.608Z,95097.50
2022-09-20T03:34:13.848Z,95094.09
2022-09-20T03:37:17.872Z,95092.19
2022-09-20T03:40:09.694Z,95096.44
2022-09-20T03:42:44.637Z,95093.78
2022-09-20T03:45:20.125Z,95102.34
2022-09-20T03:48:01.742Z,95098.25
2022-09-20T03:50:47.000Z,95100.81
2022-09-20T03:53:43.986Z,95097.94
2022-09-20T03:56:29.940Z,95099.84
2022-09-20T03:59:31.780Z,95098.56
2022-09-20T04:02:17.084Z,95097.13
2022-09-20T04:05:00.962Z,95101.38
2022-09-20T04:07:58.167Z,95099.41
2022-09-20T04:10:44.519Z,95093.66
2022-09-20T04:13:32.847Z,95097.69
2022-09-20T04:16:10.240Z,95091.47
2022-09-20T04:18:56.615Z,95092.19
2022-09-20T04:21:51.392Z,95093.03
2022-09-20T04:24:29.885Z,95097.09
2022-09-20T04:27:02.863Z,95085.53
2022-09-20T04:29:41.704Z,95100.88
2022-09-20T04:32:30.130Z,95093.91
2022-09-20T04:35:41.931Z,95089.13
2022-09-20T04:38:12.686Z,95081.09
2022-09-20T04:41:28.313Z,95084.00
2022-09-20T04:44:13.064Z,95089.97
2022-09-20T04:47:18.413Z,95092.06
2022-09-20T04:50:18.088Z,95090.78
2022-09-20T04:53:03.224Z,95102.41
2022-09-20T04:55:48.487Z,95103.59
2022-09-20T04:58:50.597Z,95109.28
2022-09-20T05:02:03.409Z,95105.13
2022-09-20T05:04:40.631Z,95107.00
2022-09-20T05:07:31.752Z,95112.25
2022-09-20T05:10:10.387Z,95103.44
2022-09-20T05:12:46.564Z,95110.53
2022-09-20T05:15:37.029Z,95109.81
2022-09-20T05:18:46.621Z,95115.94
2022-09-20T05:21:38.002Z,95119.91
2022-09-20T05:24:20.222Z,95121.81
2022-09-20T05:26:55.598Z,95123.22
2022-09-20T05:29:35.113Z,95131.53
2022-09-20T05:32:19.616Z,95134.63
2022-09-20T05:35:19.188Z,95129.09
2022-09-20T05:38:05.603Z,95131.00
2022-09-20T05:41:07.552Z,95128.81
2022-09-20T05:43:39.722Z,95118.72
2022-09-20T05:47:00.577Z,95129.53
2022-09-20T05:49:39.563Z,95130.72
2022-09-20T05:52:19.342Z,95134.94
2022-09-20T05:55:27.233Z,95140.72
2022-09-20T05:58:08.229Z,95134.06
2022-09-20T06:00:43.941Z,95141.19
2022-09-20T06:03:28.504Z,95150.75
2022-09-20T06:06:18.996Z,95151.00
2022-09-20T06:09:15.640Z,95148.41
2022-09-20T06:12:01.688Z,95156.97
2022-09-20T06:14:46.521Z,95153.88
2022-09-20T06:17:19.136Z,95154.44
2022-09-20T06:20:10.391Z,95152.84
2022-09-20T06:22:42.829Z,95154.25
2022-09-20T06:25:09.205Z,95156.25
2022-09-20T06:27:39.647Z,95151.03
2022-09-20T06:30:14.773Z,95164.91
2022-09-20T06:33:18.255Z,95156.34
2022-09-20T06:36:24.957Z,95151.81
2022-09-20T06:39:44.042Z,95160.22
2022-09-20T06:42:10.614Z,95154.34
2022-09-20T06:44:41.269Z,95141.06
2022-09-20T06:47:10.662Z,95137.78
2022-09-20T06:49:37.265Z,95154.81
2022-09-20T06:52:08.285Z,95152.06
2022-09-20T06:54:34.745Z,95141.09
2022-09-20T06:57:04.609Z,95166.06
2022-09-20T06:59:31.996Z,95152.75
2022-09-20T07:01:58.721Z,95164.00
2022-09-20T07:04:26.651Z,95171.50
2022-09-20T07:07:00.089Z,95167.25
2022-09-20T07:09:26.530Z,95166.03
2022-09-20T07:11:52.920Z,95160.50
2022-09-20T07:14:19.368Z,95165.34
2022-09-20T07:16:45.846Z,95172.53
2022-09-20T07:19:12.349Z,95157.56
2022-09-20T07:21:38.767Z,95172.53
2022-09-20T07:24:05.344Z,95175.97
2022-09-20T07:26:31.864Z,95179.31
2022-09-20T07:28:59.809Z,95178.84
2022-09-20T07:31:27.963Z,95181.28
2022-09-20T07:33:54.569Z,95171.66
2022-09-20T07:36:21.445Z,95201.09
2022-09-20T07:38:53.061Z,95174.81
2022-09-20T07:41:20.588Z,95186.06
2022-09-20T07:43:47.108Z,95164.84
2022-09-20T07:46:13.777Z,95186.00
2022-09-20T07:48:41.271Z,95190.72
2022-09-20T07:51:11.334Z,95197.50
2022-09-20T07:53:38.716Z,95183.41
2022-09-20T07:56:12.848Z,95194.78
2022-09-20T07:58:39.893Z,95195.38
2022-09-20T08:01:09.726Z,95202.81
2022-09-20T08:03:36.919Z,95189.44
2022-09-20T08:06:09.321Z,95199.72
2022-09-20T08:08:37.452Z,95199.34
2022-09-20T08:11:06.448Z,95203.44
2022-09-20T08:14:09.611Z,95203.44
2022-09-20T08:16:54.944Z,95194.25
2022-09-20T08:19:22.916Z,95198.19
2022-09-20T08:21:51.250Z,95214.31
2022-09-20T08:24:17.777Z,95213.72
2022-09-20T08:26:44.919Z,95216.50
2022-09-20T08:29:12.136Z,95200.34
2022-09-20T08:31:42.491Z,95202.66
2022-09-20T08:34:11.697Z,95220.31
2022-09-20T08:36:45.411Z,95224.09
2022-09-20T08:42:12.860Z,95227.38
2022-09-20T08:45:05.320Z,95229.97
2022-09-20T08:47:35.876Z,95231.19
2022-09-20T08:50:09.989Z,95236.47
2022-09-20T08:52:40.686Z,95231.03
2022-09-20T08:55:16.987Z,95243.88
2022-09-20T08:57:44.785Z,95234.00
2022-09-20T09:00:18.426Z,95227.94
2022-09-20T09:02:45.886Z,95247.03
2022-09-20T09:05:33.633Z,95243.78
2022-09-20T09:08:04.719Z,95231.88
2022-09-20T09:10:42.635Z,95241.25
2022-09-20T09:13:18.324Z,95237.44
2022-09-20T09:15:49.066Z,95228.28
2022-09-20T09:18:15.441Z,95221.56
2022-09-20T09:20:46.765Z,95237.19
2022-09-20T09:23:25.670Z,95249.16
2022-09-20T09:25:54.040Z,95245.16
2022-09-20T09:28:26.750Z,95243.47
2022-09-20T09:30:54.171Z,95225.06
2022-09-20T09:33:31.704Z,95245.31
2022-09-20T09:36:04.082Z,95247.13
2022-09-20T09:38:49.305Z,95236.53
2022-09-20T09:41:20.348Z,95240.94
2022-09-20T09:43:59.383Z,95228.81
2022-09-20T09:46:31.016Z,95230.44
2022-09-20T09:49:24.803Z,95237.72
2022-09-20T09:51:57.208Z,95232.03
2022-09-20T09:54:25.575Z,95233.44
2022-09-20T09:57:01.836Z,95235.16
2022-09-20T09:59:49.217Z,95232.09
2022-09-20T10:02:36.804Z,95235.78
2022-09-20T10:05:24.740Z,95233.19
2022-09-20T10:08:10.732Z,95236.59
2022-09-20T10:11:00.897Z,95236.59
2022-09-20T10:13:47.547Z,95233.25
2022-09-20T10:16:32.975Z,95223.56
2022-09-20T10:19:22.580Z,95216.78
2022-09-20T10:22:08.540Z,95221.13
2022-09-20T10:25:00.589Z,95192.06
2022-09-20T10:27:36.127Z,95215.06
2022-09-20T10:30:22.107Z,95207.28
2022-09-20T10:33:06.668Z,95218.03
2022-09-20T10:36:12.244Z,95204.97
2022-09-20T10:38:50.093Z,95216.22
2022-09-20T10:41:58.397Z,95206.91
2022-09-20T10:44:33.863Z,95206.13
2022-09-20T10:47:20.420Z,95214.78
2022-09-20T10:50:05.388Z,95210.94
2022-09-20T10:52:50.481Z,95214.81
2022-09-20T10:55:47.257Z,95212.72
2022-09-20T10:58:52.427Z,95219.94
2022-09-20T11:01:31.656Z,95224.16
2022-09-20T11:04:17.137Z,95217.59
2022-09-20T11:06:58.767Z,95210.41
2022-09-20T11:09:31.202Z,95204.00
2022-09-20T11:12:27.075Z,95213.34
2022-09-20T11:14:58.442Z,95214.03
2022-09-20T11:17:35.976Z,95204.47
2022-09-20T11:20:17.644Z,95215.50
2022-09-20T11:22:48.914Z,95215.50
2022-09-20T11:25:22.420Z,95211.75
2022-09-20T11:28:04.627Z,95222.34
2022-09-20T11:30:34.884Z,95209.06
2022-09-20T11:33:28.781Z,95215.06
2022-09-20T11:35:59.252Z,95212.19
2022-09-20T11:38:53.437Z,95218.19
2022-09-20T11:41:26.181Z,95218.63
2022-09-20T11:43:55.541Z,95223.25
2022-09-20T11:46:26.777Z,95212.00
2022-09-20T11:49:04.499Z,95219.91
2022-09-20T11:51:54.067Z,95218.69
2022-09-20T11:54:32.608Z,95220.31
2022-09-20T11:57:00.141Z,95215.81
2022-09-20T11:59:37.600Z,95220.88
2022-09-20T12:02:17.816Z,95211.81
2022-09-20T12:04:49.484Z,95211.09
2022-09-20T12:07:18.930Z,95205.19
2022-09-20T12:09:53.790Z,95208.53
2022-09-20T12:12:36.065Z,95218.81
2022-09-20T12:15:06.913Z,95197.97
2022-09-20T12:17:45.591Z,95191.56
2022-09-20T12:20:42.346Z,95208.81
2022-09-20T12:23:42.414Z,95195.84
2022-09-20T12:26:13.288Z,95202.53
2022-09-20T12:28:42.412Z,95204.72
2022-09-20T12:31:32.113Z,95193.47
2022-09-20T12:34:09.993Z,95183.16
2022-09-20T12:36:44.628Z,95176.22
2022-09-20T12:39:11.068Z,95180.81
2022-09-20T12:41:50.325Z,95175.03
2022-09-20T12:44:24.639Z,95180.31
2022-09-20T12:46:56.564Z,95170.50
2022-09-20T12:50:04.657Z,95173.38
2022-09-20T12:52:56.115Z,95166.69
2022-09-20T12:55:29.844Z,95176.91
2022-09-20T12:58:01.983Z,95173.88
2022-09-20T13:00:45.214Z,95170.97
2022-09-20T13:03:23.865Z,95179.38
2022-09-20T13:06:12.386Z,95176.00
2022-09-20T13:09:09.042Z,95181.25
2022-09-20T13:11:47.652Z,95176.28
2022-09-20T13:14:22.593Z,95175.78
2022-09-20T13:17:04.257Z,95173.34
2022-09-20T13:19:38.066Z,95178.66
2022-09-20T13:22:04.429Z,95180.56
2022-09-20T13:24:35.594Z,95179.09
2022-09-20T13:27:06.741Z,95169.53
2022-09-20T13:29:39.339Z,95174.28
2022-09-20T13:32:27.969Z,95175.50
2022-09-20T13:35:07.890Z,95171.41
2022-09-20T13:37:35.674Z,95169.72
2022-09-20T13:40:02.922Z,95172.84
2022-09-20T13:42:30.033Z,95178.09
2022-09-20T13:44:58.752Z,95169.59
2022-09-20T13:47:31.243Z,95168.19
2022-09-20T13:50:44.918Z,95165.31
2022-09-20T13:53:39.504Z,95163.19
2022-09-20T13:56:11.612Z,95160.94
2022-09-20T13:58:38.284Z,95162.78
2022-09-20T14:01:09.665Z,95161.41
2022-09-20T14:03:36.480Z,95170.66
2022-09-20T14:06:12.328Z,95171.53
2022-09-20T14:08:51.064Z,95162.25
2022-09-20T14:11:22.479Z,95156.13
2022-09-20T14:13:51.512Z,95155.84
2022-09-20T14:16:20.405Z,95158.34
2022-09-20T14:18:48.586Z,95163.28
2022-09-20T14:21:23.123Z,95160.13
2022-09-20T14:23:50.963Z,95154.38
2022-09-20T14:26:17.343Z,95162.09
2022-09-20T14:28:44.954Z,95145.66
2022-09-20T14:31:15.860Z,95160.25
2022-09-20T14:33:54.275Z,95159.13
2022-09-20T14:36:23.971Z,95157.53
2022-09-20T14:38:54.097Z,95147.13
2022-09-20T14:41:47.020Z,95164.53
2022-09-20T14:44:30.796Z,95163.13
2022-09-20T14:46:57.707Z,95154.19
2022-09-20T14:49:24.051Z,95155.50
2022-09-20T14:51:51.601Z,95159.34
2022-09-20T14:54:26.938Z,95161.50
2022-09-20T14:56:54.765Z,95155.25
2022-09-20T14:59:26.820Z,95157.09
2022-09-20T15:02:10.209Z,95175.88
2022-09-20T15:04:37.940Z,95166.78
2022-09-20T15:07:12.854Z,95175.03
2022-09-20T15:09:39.588Z,95163.44
2022-09-20T15:12:14.291Z,95157.88
2022-09-20T15:14:41.448Z,95168.59
2022-09-20T15:17:12.787Z,95169.09
2022-09-20T15:19:39.258Z,95152.56
2022-09-20T15:22:09.920Z,95168.91
2022-09-20T15:24:36.516Z,95174.50
2022-09-20T15:27:02.964Z,95163.63
2022-09-20T15:29:29.429Z,95169.88
2022-09-20T15:31:55.898Z,95145.72
2022-09-20T15:34:22.522Z,95175.25
2022-09-20T15:36:50.644Z,95179.66
2022-09-20T15:39:17.346Z,95177.50
2022-09-20T15:41:46.880Z,95174.69
2022-09-20T15:44:16.736Z,95182.44
2022-09-20T15:46:43.152Z,95183.84
2022-09-20T15:49:12.225Z,95180.19
2022-09-20T15:51:39.102Z,95183.72
2022-09-20T15:54:07.537Z,95159.50
2022-09-20T15:56:36.688Z,95181.69
2022-09-20T15:59:11.107Z,95183.22
2022-09-20T16:01:40.085Z,95184.41
2022-09-20T16:04:14.131Z,95174.53
2022-09-20T16:06:42.326Z,95187.09
2022-09-20T16:09:09.449Z,95184.28
2022-09-20T16:11:36.736Z,95182.47
2022-09-20T16:14:03.419Z,95191.16
2022-09-20T16:16:35.029Z,95196.06
2022-09-20T16:19:17.498Z,95195.13
2022-09-20T16:21:54.993Z,95196.28
2022-09-20T16:24:26.149Z,95198.44
2022-09-20T16:26:53.179Z,95202.00
2022-09-20T16:29:22.125Z,95206.78
2022-09-20T16:31:50.214Z,95198.84
2022-09-20T16:34:39.102Z,95210.16
2022-09-20T16:37:17.109Z,95205.78
2022-09-20T16:39:44.750Z,95202.41
2022-09-20T16:42:13.307Z,95200.09
2022-09-20T16:44:44.376Z,95206.06
2022-09-20T16:47:13.099Z,95203.88
2022-09-20T16:49:39.677Z,95207.97
2022-09-20T16:52:08.953Z,95207.03
2022-09-20T16:54:35.756Z,95204.88
2022-09-20T16:57:02.335Z,95203.19
2022-09-20T16:59:28.964Z,95212.56
2022-09-20T17:01:59.120Z,95206.19
2022-09-20T17:04:25.782Z,95210.22
2022-09-20T17:06:52.581Z,95206.84
2022-09-20T17:09:19.242Z,95213.09
2022-09-20T17:11:49.570Z,95216.22
2022-09-20T17:14:18.630Z,95215.50
2022-09-20T17:16:49.298Z,95217.16
2022-09-20T17:19:18.601Z,95224.84
2022-09-20T17:21:50.492Z,95230.38
2022-09-20T17:24:22.028Z,95236.88
2022-09-20T17:26:50.413Z,95238.06
2022-09-20T17:29:18.506Z,95235.91
2022-09-20T17:31:53.980Z,95252.25
2022-09-20T17:34:21.976Z,95252.97
2022-09-20T17:36:50.461Z,95250.81
2022-09-20T17:39:17.922Z,95251.97
2022-09-20T17:41:47.185Z,95251.28
2022-09-20T17:44:13.944Z,95255.34
2022-09-20T17:46:45.662Z,95259.22
2022-09-20T17:49:14.528Z,95260.91
2022-09-20T17:51:46.656Z,95268.59
2022-09-20T17:54:14.244Z,95267.41
2022-09-20T17:56:46.361Z,95265.69
2022-09-20T17:59:16.252Z,95275.31
2022-09-20T18:01:44.222Z,95277.69
2022-09-20T18:04:11.400Z,95287.81
2022-09-20T18:06:43.511Z,95282.75
2022-09-20T18:09:18.816Z,95286.38
2022-09-20T18:11:50.665Z,95287.09
2022-09-20T18:14:20.352Z,95290.69
2022-09-20T18:16:47.430Z,95286.88
2022-09-20T18:19:16.128Z,95293.59
2022-09-20T18:21:43.150Z,95287.34
2022-09-20T18:24:11.210Z,95292.88
2022-09-20T18:26:39.909Z,95295.00
2022-09-20T18:29:12.466Z,95300.78
2022-09-20T18:31:57.998Z,95309.63
2022-09-20T18:34:26.833Z,95316.34
2022-09-20T18:36:56.131Z,95313.44
2022-09-20T18:39:27.863Z,95319.69
2022-09-20T18:41:55.017Z,95318.75
2022-09-20T18:44:22.772Z,95326.88
2022-09-20T18:46:51.086Z,95324.00
2022-09-20T18:49:17.755Z,95331.63
2022-09-20T18:51:44.838Z,95326.63
2022-09-20T18:54:11.872Z,95332.38
2022-09-20T18:56:40.810Z,95341.69
2022-09-20T18:59:16.908Z,95340.72
2022-09-20T19:02:15.746Z,95332.09
2022-09-20T19:05:08.524Z,95334.72
2022-09-20T19:08:13.712Z,95339.03
2022-09-20T19:10:43.029Z,95347.16
2022-09-20T19:13:23.208Z,95342.88
2022-09-20T19:16:00.405Z,95353.13
2022-09-20T19:18:49.119Z,95346.91
2022-09-20T19:21:31.158Z,95356.50
2022-09-20T19:24:05.469Z,95365.31
2022-09-20T19:26:38.612Z,95363.38
2022-09-20T19:29:18.830Z,95359.78
2022-09-20T19:31:47.794Z,95366.22
2022-09-20T19:34:19.953Z,95370.53
2022-09-20T19:37:24.250Z,95380.81
2022-09-20T19:40:21.894Z,95371.94
2022-09-20T19:43:00.390Z,95373.34
2022-09-20T19:45:48.692Z,95388.44
2022-09-20T19:48:40.849Z,95387.50
2022-09-20T19:51:12.126Z,95388.41
2022-09-20T19:53:39.315Z,95390.78
2022-09-20T19:56:26.600Z,95390.78
2022-09-20T19:58:55.058Z,95386.94
2022-09-20T20:01:23.773Z,95388.59
2022-09-20T20:03:51.696Z,95398.16
2022-09-20T20:06:36.768Z,95393.34
2022-09-20T20:09:18.604Z,95392.84
2022-09-20T20:11:51.274Z,95402.13
2022-09-20T20:14:20.947Z,95404.06
2022-09-20T20:17:41.201Z,95415.03
2022-09-20T20:20:46.276Z,95418.13
2022-09-20T20:23:32.446Z,95415.22
2022-09-20T20:26:21.674Z,95420.97
2022-09-20T20:28:48.393Z,95423.81
2022-09-20T20:31:15.314Z,95411.13
2022-09-20T20:33:43.412Z,95416.84
2022-09-20T20:36:11.968Z,95425.19
2022-09-20T20:38:40.415Z,95416.34
2022-09-20T20:41:12.249Z,95415.63
2022-09-20T20:43:40.902Z,95413.91
2022-09-20T20:46:10.952Z,95414.41
2022-09-20T20:48:37.698Z,95423.47
2022-09-20T20:51:12.542Z,95423.22
2022-09-20T20:53:47.100Z,95427.03
2022-09-20T20:56:28.618Z,95427.97
2022-09-20T20:58:57.827Z,95426.97
2022-09-20T21:01:27.782Z,95426.00
2022-09-20T21:03:56.027Z,95435.81
2022-09-20T21:06:25.192Z,95427.69
2022-09-20T21:08:52.493Z,95431.47
2022-09-20T21:11:24.292Z,95430.03
2022-09-20T21:13:55.224Z,95432.41
2022-09-20T21:16:24.287Z,95424.28
2022-09-20T21:18:51.300Z,95421.38
2022-09-20T21:21:24.533Z,95422.84
2022-09-20T21:23:53.556Z,95424.22
2022-09-20T21:26:21.601Z,95427.13
2022-09-20T21:28:59.589Z,95426.53
2022-09-20T21:31:29.310Z,95433.03
2022-09-20T21:33:57.016Z,95428.50
2022-09-20T21:36:29.101Z,95424.88
2022-09-20T21:38:56.377Z,95422.72
2022-09-20T21:41:29.389Z,95424.63
2022-09-20T21:43:57.827Z,95419.84
2022-09-20T21:46:30.301Z,95424.84
2022-09-20T21:48:59.429Z,95433.91
2022-09-20T21:51:29.834Z,95433.63
2022-09-20T21:53:58.169Z,95433.41
2022-09-20T21:56:27.514Z,95425.25
2022-09-20T21:58:54.754Z,95425.00
2022-09-20T22:01:24.125Z,95426.66
2022-09-20T22:04:01.130Z,95426.84
2022-09-20T22:06:36.446Z,95426.84
2022-09-20T22:09:11.202Z,95433.25
2022-09-20T22:11:40.910Z,95427.06
2022-09-20T22:14:08.736Z,95437.28
2022-09-20T22:16:38.090Z,95433.69
2022-09-20T22:19:06.292Z,95426.28
2022-09-20T22:21:35.799Z,95437.97
2022-09-20T22:24:05.145Z,95433.16
2022-09-20T22:26:34.509Z,95427.91
2022-09-20T22:29:01.442Z,95427.63
2022-09-20T22:31:30.503Z,95428.13
2022-09-20T22:34:00.025Z,95431.19
2022-09-20T22:36:33.074Z,95427.16
2022-09-20T22:38:59.873Z,95424.25
2022-09-20T22:41:27.712Z,95421.34
2022-09-20T22:43:54.475Z,95418.47
2022-09-20T22:46:28.431Z,95419.66
2022-09-20T22:48:55.410Z,95408.91
2022-09-20T22:51:30.963Z,95413.41
2022-09-20T22:53:57.507Z,95414.34
2022-09-20T22:56:29.437Z,95412.19
2022-09-20T22:59:00.251Z,95412.13
2022-09-20T23:01:47.202Z,95416.91
2022-09-20T23:04:19.115Z,95408.75
2022-09-20T23:06:48.029Z,95411.59
2022-09-20T23:09:17.791Z,95410.13
2022-09-20T23:11:44.838Z,95414.66
2022-09-20T23:14:14.419Z,95415.59
2022-09-20T23:16:41.168Z,95413.44
2022-09-20T23:19:09.156Z,95416.50
2022-09-20T23:21:38.355Z,95417.44
2022-09-20T23:24:07.904Z,95415.00
2022-09-20T23:26:36.897Z,95410.22
2022-09-20T23:29:06.348Z,95413.72
2022-09-20T23:31:34.668Z,95412.06
2022-09-20T23:34:03.565Z,95411.25
2022-09-20T23:36:32.336Z,95419.81
2022-09-20T23:38:59.063Z,95418.84
2022-09-20T23:41:27.323Z,95420.50
2022-09-20T23:43:54.841Z,95418.31
2022-09-20T23:46:22.905Z,95418.97
2022-09-20T23:48:52.559Z,95419.44
2022-09-20T23:51:25.461Z,95418.44
2022-09-20T23:53:53.040Z,95415.31
2022-09-20T23:56:21.640Z,95419.53
2022-09-20T23:58:48.745Z,95425.72
